Startpagina
METAR-TAF:

METAR-TAF

Vliegvelden :

Internationale Luchthaven Baghdad

Bagdad, Irak

breedte: 33-15-45N, lengte: 44-14-04E, hoogte: 35 m

Actueel weer

Dit bericht is 35 minuten geleden gemaakt, om 04:30 UTC
Wind 9 kt uit het oostzuidoosten
Temperatuur 32°C
Vochtigheid 28%
Druk 1006 hPa
Zicht: 9000 m
Verspreide wolken op 3000 ft

METAR: ORBI 190430Z 12009KT 9000 SCT030 32/11 Q1006

Tijdstip: 08:05 (05:05 UTC)

Verwachting

Dit bericht is 7 uur en het 5 minuten geleden gemaakt, om 22:00 UTC
Verwachting geldig van 19 om 00 UTC tot 19 om 24 UTC
Wind 3 kt uit variabele richting
Zicht: 7000 m
Verspreide wolken op 4000 ft

TAF: ORBI 182200Z 1900/1924 VRB03KT 7000 SCT040

Waarnemingen en weersverwachtingen van meer dan 4000 vliegvelden (METAR en TAF).

De beschikbare stations zijn de gele en rode punten op de kaart.

Ga met uw muis naar het station om de naam te zien.

Klik dan om waarnemingen en weersverwachtingen te zien.

kaart wijzigen: klik op de groene knoppen met een zwart kruis om in te zoomen, op de groene knop met een streepje om uit te zoomen of op de groene pijlen voor aangrenzende kaarten.


METAR-TAF: